createdAt,value
2022-07-28T00:01:10.084Z,0.77
2022-07-28T00:03:37.170Z,0.82
2022-07-28T00:06:05.175Z,0.85
2022-07-28T00:08:32.321Z,0.90
2022-07-28T00:10:59.384Z,0.82
2022-07-28T00:13:26.498Z,0.63
2022-07-28T00:15:53.769Z,0.65
2022-07-28T00:18:20.874Z,0.70
2022-07-28T00:20:47.980Z,0.77
2022-07-28T00:23:15.089Z,0.70
2022-07-28T00:25:42.273Z,0.70
2022-07-28T00:28:09.367Z,0.75
2022-07-28T00:30:36.625Z,0.55
2022-07-28T00:33:04.582Z,0.82
2022-07-28T00:35:31.949Z,0.70
2022-07-28T00:38:01.064Z,0.90
2022-07-28T00:40:47.288Z,0.93
2022-07-28T00:43:15.406Z,0.90
2022-07-28T00:45:44.393Z,0.90
2022-07-28T00:48:11.484Z,1.00
2022-07-28T00:50:40.207Z,0.90
2022-07-28T00:53:08.806Z,0.88
2022-07-28T00:56:03.465Z,0.95
2022-07-28T00:58:27.746Z,1.23
2022-07-28T01:00:55.454Z,1.13
2022-07-28T01:03:23.615Z,1.00
2022-07-28T01:05:59.605Z,0.85
2022-07-28T01:08:58.277Z,1.17
2022-07-28T01:11:42.886Z,0.65
2022-07-28T01:14:13.361Z,1.00
2022-07-28T01:17:24.678Z,1.08
2022-07-28T01:20:10.191Z,1.02
2022-07-28T01:22:46.018Z,1.17
2022-07-28T01:25:32.608Z,0.90
2022-07-28T01:28:24.411Z,1.10
2022-07-28T01:33:43.774Z,0.80
2022-07-28T01:36:14.648Z,0.90
2022-07-28T01:38:43.064Z,1.02
2022-07-28T01:41:15.024Z,1.00
2022-07-28T01:43:45.809Z,0.88
2022-07-28T01:46:15.078Z,1.00
2022-07-28T01:48:45.015Z,0.90
2022-07-28T01:51:14.665Z,1.00
2022-07-28T01:53:43.595Z,1.40
2022-07-28T01:56:11.424Z,1.42
2022-07-28T01:58:40.251Z,1.52
2022-07-28T02:01:07.854Z,0.90
2022-07-28T02:03:36.717Z,0.98
2022-07-28T02:06:06.420Z,1.33
2022-07-28T02:08:35.937Z,1.00
2022-07-28T02:11:21.684Z,1.05
2022-07-28T02:13:50.297Z,1.05
2022-07-28T02:16:21.171Z,1.20
2022-07-28T02:18:50.761Z,1.00
2022-07-28T02:21:19.720Z,1.20
2022-07-28T02:23:49.062Z,1.27
2022-07-28T02:26:18.536Z,0.90
2022-07-28T02:28:51.556Z,1.27
2022-07-28T02:31:27.736Z,0.90
2022-07-28T02:34:02.291Z,0.93
2022-07-28T02:36:38.245Z,0.93
2022-07-28T02:39:21.302Z,1.17
2022-07-28T02:41:53.498Z,1.10
2022-07-28T02:44:24.882Z,1.20
2022-07-28T02:46:53.715Z,1.05
2022-07-28T02:49:25.902Z,0.90
2022-07-28T02:51:55.280Z,0.90
2022-07-28T02:54:25.764Z,1.20
2022-07-28T02:56:54.302Z,1.20
2022-07-28T02:59:22.230Z,0.73
2022-07-28T03:01:50.659Z,1.13
2022-07-28T03:04:38.787Z,0.82
2022-07-28T03:07:06.639Z,0.95
2022-07-28T03:09:46.176Z,1.08
2022-07-28T03:12:13.559Z,1.05
2022-07-28T03:14:42.021Z,1.25
2022-07-28T03:17:09.510Z,0.85
2022-07-28T03:19:37.146Z,1.00
2022-07-28T03:22:05.427Z,0.52
2022-07-28T03:24:37.035Z,0.90
2022-07-28T03:27:22.173Z,0.93
2022-07-28T03:29:54.596Z,0.85
2022-07-28T03:32:24.006Z,0.85
2022-07-28T03:34:52.645Z,1.00
2022-07-28T03:37:32.553Z,1.40
2022-07-28T03:40:00.748Z,1.10
2022-07-28T03:42:30.786Z,1.30
2022-07-28T03:44:58.095Z,1.15
2022-07-28T03:47:25.385Z,1.13
2022-07-28T03:49:52.429Z,0.90
2022-07-28T03:52:19.639Z,1.48
2022-07-28T03:54:46.932Z,1.00
2022-07-28T03:57:14.297Z,0.77
2022-07-28T03:59:41.405Z,1.17
2022-07-28T04:02:08.563Z,1.02
2022-07-28T04:04:35.629Z,0.90
2022-07-28T04:07:02.737Z,0.80
2022-07-28T04:09:29.785Z,1.08
2022-07-28T04:11:56.868Z,0.68
2022-07-28T04:14:24.720Z,0.80
2022-07-28T04:16:52.104Z,0.73
2022-07-28T04:19:19.183Z,0.90
2022-07-28T04:21:46.795Z,0.77
2022-07-28T04:24:14.265Z,0.60
2022-07-28T04:26:41.570Z,0.90
2022-07-28T04:29:11.474Z,0.63
2022-07-28T04:31:38.541Z,0.60
2022-07-28T04:34:05.657Z,0.80
2022-07-28T04:36:33.103Z,0.85
2022-07-28T04:39:00.654Z,0.60
2022-07-28T04:41:27.785Z,0.50
2022-07-28T04:43:55.030Z,0.70
2022-07-28T04:46:22.188Z,0.50
2022-07-28T04:48:49.329Z,0.90
2022-07-28T04:51:16.611Z,0.70
2022-07-28T04:53:43.854Z,0.80
2022-07-28T04:56:10.903Z,0.60
2022-07-28T04:58:38.050Z,0.70
2022-07-28T05:01:05.488Z,0.70
2022-07-28T05:03:36.105Z,0.70
2022-07-28T05:06:03.701Z,0.60
2022-07-28T05:08:30.790Z,0.80
2022-07-28T05:10:57.892Z,0.60
2022-07-28T05:13:28.971Z,0.63
2022-07-28T05:15:58.869Z,0.70
2022-07-28T05:18:25.969Z,0.52
2022-07-28T05:20:53.110Z,0.60
2022-07-28T05:23:20.144Z,0.82
2022-07-28T05:25:47.286Z,0.73
2022-07-28T05:28:14.331Z,0.95
2022-07-28T05:30:43.989Z,0.75
2022-07-28T05:33:11.137Z,0.70
2022-07-28T05:35:38.223Z,0.70
2022-07-28T05:38:10.365Z,0.95
2022-07-28T05:40:38.029Z,0.52
2022-07-28T05:43:05.108Z,0.70
2022-07-28T05:45:34.184Z,0.63
2022-07-28T05:48:01.364Z,0.98
2022-07-28T05:50:28.411Z,0.70
2022-07-28T05:52:55.469Z,1.02
2022-07-28T05:55:22.614Z,0.80
2022-07-28T05:57:49.690Z,1.50
2022-07-28T06:00:19.964Z,1.25
2022-07-28T06:02:51.089Z,0.90
2022-07-28T06:05:20.646Z,1.00
2022-07-28T06:07:49.744Z,1.13
2022-07-28T06:10:20.436Z,1.02
2022-07-28T06:12:49.693Z,1.27
2022-07-28T06:15:26.141Z,1.10
2022-07-28T06:17:55.825Z,0.80
2022-07-28T06:20:25.345Z,0.93
2022-07-28T06:22:54.214Z,0.88
2022-07-28T06:25:23.644Z,0.90
2022-07-28T06:27:54.020Z,1.02
2022-07-28T06:30:22.122Z,0.57
2022-07-28T06:32:50.290Z,0.85
2022-07-28T06:35:18.657Z,0.75
2022-07-28T06:37:50.223Z,0.55
2022-07-28T06:40:18.771Z,0.55
2022-07-28T06:42:46.642Z,0.60
2022-07-28T06:45:20.976Z,0.82
2022-07-28T06:47:52.485Z,0.70
2022-07-28T06:50:27.027Z,0.70
2022-07-28T06:52:58.984Z,0.40
2022-07-28T06:55:34.392Z,0.80
2022-07-28T06:58:02.639Z,0.70
2022-07-28T07:00:30.049Z,0.70
2022-07-28T07:02:57.390Z,0.80
2022-07-28T07:05:26.360Z,0.90
2022-07-28T07:07:53.448Z,0.90
2022-07-28T07:10:20.533Z,0.75
2022-07-28T07:12:47.666Z,0.80
2022-07-28T07:15:14.728Z,0.80
2022-07-28T07:17:42.587Z,0.57
2022-07-28T07:20:10.764Z,0.60
2022-07-28T07:22:47.841Z,0.70
2022-07-28T07:25:17.232Z,0.95
2022-07-28T07:27:45.470Z,0.60
2022-07-28T07:30:14.031Z,1.00
2022-07-28T07:32:41.521Z,0.75
2022-07-28T07:35:08.772Z,0.77
2022-07-28T07:37:35.924Z,0.75
2022-07-28T07:40:05.565Z,0.68
2022-07-28T07:42:32.824Z,0.85
2022-07-28T07:44:59.999Z,1.08
2022-07-28T07:47:27.177Z,0.90
2022-07-28T07:49:54.292Z,1.08
2022-07-28T07:52:21.381Z,0.65
2022-07-28T07:54:48.511Z,0.90
2022-07-28T07:57:15.811Z,0.80
2022-07-28T07:59:42.876Z,1.05
2022-07-28T08:02:10.099Z,0.80
2022-07-28T08:04:39.119Z,0.80
2022-07-28T08:07:07.892Z,0.80
2022-07-28T08:09:35.496Z,1.20
2022-07-28T08:12:03.113Z,0.90
2022-07-28T08:14:30.416Z,1.02
2022-07-28T08:16:59.546Z,0.98
2022-07-28T08:19:26.801Z,1.50
2022-07-28T08:21:55.725Z,1.20
2022-07-28T08:24:33.827Z,1.25
2022-07-28T08:27:04.584Z,1.13
2022-07-28T08:29:31.809Z,1.23
2022-07-28T08:31:59.062Z,0.95
2022-07-28T08:34:28.463Z,0.88
2022-07-28T08:37:02.562Z,0.80
2022-07-28T08:39:31.364Z,1.00
2022-07-28T08:42:27.472Z,0.80
2022-07-28T08:44:58.608Z,0.75
2022-07-28T08:47:40.538Z,0.98
2022-07-28T08:50:16.461Z,0.70
2022-07-28T08:52:46.556Z,0.70
2022-07-28T08:55:19.448Z,0.75
2022-07-28T08:57:46.956Z,0.80
2022-07-28T09:00:14.398Z,0.40
2022-07-28T09:02:46.739Z,0.63
2022-07-28T09:05:23.373Z,0.32
2022-07-28T09:10:22.220Z,0.40
2022-07-28T09:12:49.550Z,0.30
2022-07-28T09:15:16.732Z,0.50
2022-07-28T09:17:43.810Z,0.40
2022-07-28T09:20:12.127Z,0.80
2022-07-28T09:22:57.117Z,0.50
2022-07-28T09:25:24.940Z,0.45
2022-07-28T09:27:52.118Z,0.50
2022-07-28T09:30:31.276Z,0.45
2022-07-28T09:33:41.855Z,0.45
2022-07-28T09:36:13.167Z,0.50
2022-07-28T09:38:41.859Z,0.60
2022-07-28T09:41:09.059Z,0.50
2022-07-28T09:43:42.077Z,0.55
2022-07-28T09:46:12.448Z,0.47
2022-07-28T09:49:00.821Z,0.63
2022-07-28T09:51:30.873Z,0.50
2022-07-28T09:54:10.531Z,0.45
2022-07-28T09:56:39.610Z,0.47
2022-07-28T09:59:08.632Z,0.20
2022-07-28T10:01:55.032Z,0.32
2022-07-28T10:04:37.028Z,0.85
2022-07-28T10:07:05.858Z,0.30
2022-07-28T10:09:33.722Z,0.60
2022-07-28T10:12:20.468Z,0.40
2022-07-28T10:14:50.977Z,0.40
2022-07-28T10:17:25.724Z,0.50
2022-07-28T10:19:55.233Z,0.40
2022-07-28T10:22:25.429Z,0.32
2022-07-28T10:24:53.943Z,0.40
2022-07-28T10:27:24.999Z,0.40
2022-07-28T10:29:59.987Z,0.40
2022-07-28T10:32:29.783Z,0.40
2022-07-28T10:35:04.144Z,0.45
2022-07-28T10:37:36.590Z,0.40
2022-07-28T10:40:10.621Z,0.50
2022-07-28T10:42:40.799Z,0.30
2022-07-28T10:45:11.327Z,0.32
2022-07-28T10:47:38.450Z,0.30
2022-07-28T10:50:06.129Z,0.40
2022-07-28T10:52:47.424Z,0.30
2022-07-28T10:55:32.020Z,0.35
2022-07-28T10:58:26.428Z,0.17
2022-07-28T11:00:58.209Z,0.30
2022-07-28T11:03:43.990Z,0.25
2022-07-28T11:06:28.066Z,0.20
2022-07-28T11:08:56.816Z,0.47
2022-07-28T11:11:42.483Z,0.20
2022-07-28T11:14:26.048Z,0.30
2022-07-28T11:17:13.515Z,0.30
2022-07-28T11:22:34.913Z,0.10
2022-07-28T11:25:18.732Z,0.40
2022-07-28T11:27:52.118Z,0.50
2022-07-28T11:30:19.679Z,0.60
2022-07-28T11:32:55.905Z,0.30
2022-07-28T11:35:24.952Z,0.40
2022-07-28T11:38:03.882Z,0.20
2022-07-28T11:40:38.770Z,1.45
2022-07-28T11:43:37.556Z,1.42
2022-07-28T11:46:09.717Z,1.80
2022-07-28T11:48:39.115Z,1.65
2022-07-28T11:51:06.257Z,2.33
2022-07-28T11:53:42.029Z,1.20
2022-07-28T11:56:14.563Z,1.50
2022-07-28T11:58:42.998Z,1.23
2022-07-28T12:01:21.140Z,1.73
2022-07-28T12:03:56.154Z,1.40
2022-07-28T12:06:28.647Z,1.70
2022-07-28T12:09:02.471Z,1.27
2022-07-28T12:11:38.237Z,1.27
2022-07-28T12:14:14.193Z,1.50
2022-07-28T12:16:44.160Z,1.10
2022-07-28T12:19:14.993Z,1.10
2022-07-28T12:21:56.835Z,1.25
2022-07-28T12:24:45.970Z,1.65
2022-07-28T12:27:16.816Z,1.70
2022-07-28T12:29:47.830Z,1.95
2022-07-28T12:32:17.754Z,1.50
2022-07-28T12:34:45.721Z,1.30
2022-07-28T12:37:14.065Z,1.40
2022-07-28T12:39:43.524Z,1.95
2022-07-28T12:42:12.591Z,1.40
2022-07-28T12:44:43.920Z,1.35
2022-07-28T12:49:41.627Z,1.30
2022-07-28T12:52:25.480Z,1.65
2022-07-28T12:54:55.670Z,1.38
2022-07-28T12:57:50.569Z,1.40
2022-07-28T13:00:27.740Z,1.20
2022-07-28T13:02:56.543Z,1.67
2022-07-28T13:06:03.327Z,1.67
2022-07-28T13:08:46.299Z,1.30
2022-07-28T13:11:42.544Z,1.23
2022-07-28T13:14:02.767Z,1.10
2022-07-28T13:16:30.242Z,1.23
2022-07-28T13:19:00.889Z,1.30
2022-07-28T13:21:57.573Z,1.35
2022-07-28T13:24:27.367Z,1.63
2022-07-28T13:26:54.861Z,1.48
2022-07-28T13:29:22.750Z,1.25
2022-07-28T13:31:50.330Z,1.40
2022-07-28T13:34:17.947Z,1.42
2022-07-28T13:36:45.288Z,1.77
2022-07-28T13:39:14.035Z,1.48
2022-07-28T13:41:57.941Z,1.45
2022-07-28T13:44:29.200Z,1.75
2022-07-28T13:49:27.848Z,1.45
2022-07-28T13:51:55.368Z,1.55
2022-07-28T13:54:23.045Z,1.40
2022-07-28T13:56:51.130Z,1.17
2022-07-28T13:59:18.287Z,1.73
2022-07-28T14:01:49.646Z,1.33
2022-07-28T14:04:18.869Z,1.20
2022-07-28T14:06:48.832Z,1.70
2022-07-28T14:09:18.375Z,1.52
2022-07-28T14:11:50.171Z,1.15
2022-07-28T14:14:24.076Z,1.50
2022-07-28T14:16:54.187Z,1.63
2022-07-28T14:19:39.402Z,1.33
2022-07-28T14:22:13.391Z,1.27
2022-07-28T14:24:42.594Z,1.58
2022-07-28T14:27:10.588Z,1.60
2022-07-28T14:29:38.080Z,1.63
2022-07-28T14:32:05.672Z,1.58
2022-07-28T14:34:32.712Z,1.05
2022-07-28T14:37:05.820Z,1.50
2022-07-28T14:39:37.141Z,1.65
2022-07-28T14:42:05.013Z,1.30
2022-07-28T14:44:32.053Z,1.27
2022-07-28T14:46:59.309Z,1.20
2022-07-28T14:49:26.559Z,1.10
2022-07-28T14:51:56.217Z,1.20
2022-07-28T14:54:23.590Z,1.40
2022-07-28T14:56:50.884Z,1.60
2022-07-28T14:59:18.025Z,1.23
2022-07-28T15:01:45.260Z,1.27
2022-07-28T15:04:16.659Z,1.42
2022-07-28T15:06:44.476Z,1.35
2022-07-28T15:09:11.790Z,1.15
2022-07-28T15:11:39.907Z,1.58
2022-07-28T15:14:07.109Z,1.35
2022-07-28T15:16:34.347Z,1.00
2022-07-28T15:19:02.667Z,1.65
2022-07-28T15:21:34.308Z,1.30
2022-07-28T15:24:04.123Z,1.25
2022-07-28T15:26:31.200Z,1.45
2022-07-28T15:28:58.407Z,1.95
2022-07-28T15:31:26.049Z,1.40
2022-07-28T15:33:57.598Z,1.40
2022-07-28T15:36:25.925Z,1.40
2022-07-28T15:38:54.627Z,1.40
2022-07-28T15:41:22.121Z,1.10
2022-07-28T15:43:49.324Z,1.30
2022-07-28T15:46:16.696Z,1.23
2022-07-28T15:48:44.899Z,1.27
2022-07-28T15:51:12.412Z,1.23
2022-07-28T15:53:41.299Z,0.95
2022-07-28T15:56:09.007Z,1.27
2022-07-28T15:58:37.039Z,1.85
2022-07-28T16:01:04.312Z,1.35
2022-07-28T16:03:31.416Z,1.38
2022-07-28T16:05:59.138Z,1.42
2022-07-28T16:08:27.056Z,1.00
2022-07-28T16:10:54.842Z,1.05
2022-07-28T16:13:28.663Z,1.17
2022-07-28T16:16:10.266Z,1.17
2022-07-28T16:18:38.653Z,1.50
2022-07-28T16:21:07.511Z,1.05
2022-07-28T16:23:34.941Z,1.23
2022-07-28T16:26:02.974Z,1.75
2022-07-28T16:28:30.016Z,1.00
2022-07-28T16:30:57.244Z,1.65
2022-07-28T16:33:24.732Z,1.15
2022-07-28T16:35:52.363Z,1.63
2022-07-28T16:38:20.379Z,1.17
2022-07-28T16:40:47.505Z,1.70
2022-07-28T16:43:14.586Z,1.30
2022-07-28T16:45:42.485Z,1.40
2022-07-28T16:48:09.680Z,0.95
2022-07-28T16:50:36.813Z,1.17
2022-07-28T16:53:06.722Z,1.33
2022-07-28T16:55:33.996Z,1.30
2022-07-28T16:58:01.118Z,0.90
2022-07-28T17:00:29.802Z,0.98
2022-07-28T17:02:57.404Z,1.15
2022-07-28T17:05:25.258Z,1.13
2022-07-28T17:07:52.618Z,1.35
2022-07-28T17:10:20.335Z,1.15
2022-07-28T17:12:54.087Z,0.90
2022-07-28T17:15:22.451Z,0.90
2022-07-28T17:17:53.380Z,0.90
2022-07-28T17:20:21.241Z,1.05
2022-07-28T17:22:48.752Z,1.00
2022-07-28T17:25:44.542Z,0.93
2022-07-28T17:28:04.914Z,0.80
2022-07-28T17:30:33.560Z,0.95
2022-07-28T17:33:06.275Z,0.90
2022-07-28T17:35:36.203Z,0.70
2022-07-28T17:38:04.938Z,0.77
2022-07-28T17:40:32.059Z,0.80
2022-07-28T17:42:59.293Z,1.00
2022-07-28T17:45:26.598Z,1.05
2022-07-28T17:47:53.950Z,1.10
2022-07-28T17:50:22.051Z,1.25
2022-07-28T17:52:49.339Z,0.95
2022-07-28T17:55:55.744Z,1.30
2022-07-28T17:58:29.544Z,1.23
2022-07-28T18:01:09.606Z,1.00
2022-07-28T18:03:57.935Z,1.08
2022-07-28T18:06:34.127Z,1.30
2022-07-28T18:09:08.147Z,1.58
2022-07-28T18:11:56.568Z,1.20
2022-07-28T18:14:26.971Z,1.10
2022-07-28T18:16:54.329Z,1.02
2022-07-28T18:19:21.909Z,1.35
2022-07-28T18:21:49.300Z,1.42
2022-07-28T18:24:17.027Z,0.95
2022-07-28T18:26:44.427Z,1.00
2022-07-28T18:29:11.472Z,1.25
2022-07-28T18:31:45.811Z,1.10
2022-07-28T18:34:14.124Z,1.13
2022-07-28T18:36:41.543Z,1.23
2022-07-28T18:39:08.790Z,1.38
2022-07-28T18:41:46.184Z,1.00
2022-07-28T18:44:14.326Z,1.42
2022-07-28T18:46:41.753Z,1.65
2022-07-28T18:49:09.038Z,1.08
2022-07-28T18:51:36.410Z,1.20
2022-07-28T18:54:04.113Z,1.30
2022-07-28T18:56:31.940Z,1.23
2022-07-28T18:58:59.732Z,1.17
2022-07-28T19:01:26.876Z,1.10
2022-07-28T19:03:54.050Z,1.48
2022-07-28T19:06:21.646Z,0.90
2022-07-28T19:08:48.922Z,0.85
2022-07-28T19:11:19.850Z,1.10
2022-07-28T19:16:15.080Z,1.42
2022-07-28T19:18:42.196Z,1.00
2022-07-28T19:21:09.432Z,1.13
2022-07-28T19:23:36.866Z,1.05
2022-07-28T19:26:03.990Z,1.27
2022-07-28T19:28:31.162Z,1.50
2022-07-28T19:31:00.096Z,1.23
2022-07-28T19:33:37.513Z,1.08
2022-07-28T19:36:10.938Z,1.20
2022-07-28T19:38:38.284Z,1.05
2022-07-28T19:41:05.333Z,1.10
2022-07-28T19:43:32.448Z,1.08
2022-07-28T19:46:00.380Z,1.17
2022-07-28T19:48:27.752Z,0.95
2022-07-28T19:50:54.897Z,1.15
2022-07-28T19:53:25.116Z,1.15
2022-07-28T19:55:58.839Z,1.13
2022-07-28T19:58:26.071Z,1.23
2022-07-28T20:00:54.143Z,1.35
2022-07-28T20:04:00.725Z,1.10
2022-07-28T20:06:11.975Z,1.08
2022-07-28T20:08:39.870Z,1.42
2022-07-28T20:11:08.527Z,1.10
2022-07-28T20:13:35.661Z,1.02
2022-07-28T20:16:02.989Z,0.82
2022-07-28T20:18:30.101Z,1.02
2022-07-28T20:20:57.713Z,0.93
2022-07-28T20:23:24.777Z,1.30
2022-07-28T20:25:51.975Z,1.20
2022-07-28T20:28:19.331Z,1.23
2022-07-28T20:30:46.485Z,1.10
2022-07-28T20:33:13.592Z,1.20
2022-07-28T20:35:40.820Z,1.08
2022-07-28T20:38:08.537Z,1.30
2022-07-28T20:40:35.816Z,0.98
2022-07-28T20:43:03.051Z,1.00
2022-07-28T20:45:31.929Z,0.80
2022-07-28T20:47:59.249Z,1.02
2022-07-28T20:50:26.534Z,1.10
2022-07-28T20:52:53.620Z,0.88
2022-07-28T20:55:20.974Z,1.35
2022-07-28T20:57:53.098Z,1.20
2022-07-28T21:00:21.159Z,1.50
2022-07-28T21:02:48.291Z,1.45
2022-07-28T21:05:26.460Z,1.30
2022-07-28T21:08:04.654Z,1.40
2022-07-28T21:10:34.067Z,1.30
2022-07-28T21:13:01.305Z,1.25
2022-07-28T21:15:28.560Z,1.10
2022-07-28T21:17:57.293Z,1.13
2022-07-28T21:20:24.952Z,1.20
2022-07-28T21:22:52.292Z,1.65
2022-07-28T21:25:19.860Z,1.42
2022-07-28T21:28:05.845Z,1.10
2022-07-28T21:30:33.108Z,1.40
2022-07-28T21:33:00.304Z,1.65
2022-07-28T21:35:27.549Z,1.42
2022-07-28T21:37:54.581Z,1.20
2022-07-28T21:40:21.687Z,1.40
2022-07-28T21:42:48.760Z,1.30
2022-07-28T21:45:15.923Z,1.30
2022-07-28T21:47:43.041Z,1.33
2022-07-28T21:50:10.941Z,1.35
2022-07-28T21:52:38.628Z,1.40
2022-07-28T21:55:08.273Z,1.25
2022-07-28T21:57:36.009Z,1.45
2022-07-28T22:00:06.039Z,1.40
2022-07-28T22:02:33.138Z,1.20
2022-07-28T22:05:01.278Z,1.60
2022-07-28T22:07:28.525Z,1.30
2022-07-28T22:09:55.594Z,1.63
2022-07-28T22:12:23.125Z,1.17
2022-07-28T22:14:50.563Z,1.23
2022-07-28T22:17:17.714Z,1.05
2022-07-28T22:19:44.818Z,1.42
2022-07-28T22:22:11.898Z,1.42
2022-07-28T22:24:38.991Z,1.20
2022-07-28T22:27:06.368Z,1.30
2022-07-28T22:29:33.693Z,1.58
2022-07-28T22:32:01.400Z,1.35
2022-07-28T22:34:29.966Z,1.30
2022-07-28T22:36:56.995Z,1.20
2022-07-28T22:39:24.056Z,1.70
2022-07-28T22:41:51.144Z,1.40
2022-07-28T22:44:18.577Z,1.42
2022-07-28T22:46:46.316Z,1.48
2022-07-28T22:49:13.557Z,1.30
2022-07-28T22:51:40.841Z,1.17
2022-07-28T22:54:15.925Z,1.45
2022-07-28T22:56:43.458Z,1.17
2022-07-28T22:59:10.730Z,1.30
2022-07-28T23:01:41.576Z,1.50
2022-07-28T23:04:08.652Z,1.17
2022-07-28T23:06:35.782Z,1.40
2022-07-28T23:09:02.958Z,1.42
2022-07-28T23:11:30.085Z,1.70
2022-07-28T23:13:57.145Z,1.60
2022-07-28T23:16:24.292Z,1.27
2022-07-28T23:18:51.374Z,1.67
2022-07-28T23:21:18.436Z,1.52
2022-07-28T23:23:45.579Z,1.38
2022-07-28T23:26:12.631Z,1.48
2022-07-28T23:28:41.270Z,1.58
2022-07-28T23:31:08.601Z,1.40
2022-07-28T23:33:55.290Z,1.60
2022-07-28T23:36:27.308Z,1.40
2022-07-28T23:38:59.122Z,1.40
2022-07-28T23:41:27.419Z,1.10
2022-07-28T23:43:54.803Z,1.13
2022-07-28T23:46:22.266Z,1.40
2022-07-28T23:48:49.657Z,1.42
2022-07-28T23:51:16.883Z,1.50
2022-07-28T23:53:44.309Z,1.20
2022-07-28T23:56:11.402Z,1.17
2022-07-28T23:58:38.445Z,1.40
